Time;durP1;ratioP1;P1;durP2;ratioP2;P2;SDS_P1;SDS_P2;PMS_P1;PMS_P2;Temp;Humidity;BMP_temperature;BMP_pressure;BME280_temperature;BME280_humidity;BME280_pressure;Samples;Min_cycle;Max_cycle;Signal;HPM_P1;HPM_P2
2023/12/30 00:02:12;;;;;;;4.43;1.77;;;;;;;8.24;100.00;99412.13;5013646;28;20257;-82
2023/12/30 00:04:38;;;;;;;1.83;0.90;;;;;;;8.29;100.00;99442.31;5013302;28;20623;-82
2023/12/30 00:07:04;;;;;;;1.30;1.20;;;;;;;7.96;100.00;99463.03;5014067;28;20631;-84
2023/12/30 00:09:31;;;;;;;3.50;1.00;;;;;;;7.83;100.00;99440.84;5014008;28;20203;-82
2023/12/30 00:11:58;;;;;;;1.67;0.63;;;;;;;8.00;100.00;99447.38;5015354;28;20585;-82
2023/12/30 00:14:30;;;;;;;1.13;0.43;;;;;;;7.76;98.19;99476.50;5012711;28;20226;-81
2023/12/30 00:16:57;;;;;;;0.77;0.60;;;;;;;7.78;99.45;99452.25;5013376;28;20205;-81
2023/12/30 00:19:23;;;;;;;0.57;0.40;;;;;;;7.90;98.16;99458.00;5013094;28;20254;-82
2023/12/30 00:21:49;;;;;;;2.00;1.20;;;;;;;7.68;97.91;99470.63;5014477;28;20249;-81
2023/12/30 00:24:16;;;;;;;1.63;0.90;;;;;;;7.50;97.59;99497.88;5014636;28;20227;-81
2023/12/30 00:26:42;;;;;;;1.63;1.00;;;;;;;7.30;96.88;99498.28;5014928;28;20211;-81
2023/12/30 00:29:11;;;;;;;0.63;0.50;;;;;;;7.35;96.47;99505.97;5014582;28;20217;-82
2023/12/30 00:31:37;;;;;;;0.50;0.40;;;;;;;7.59;96.89;99514.13;5014208;28;20211;-79
2023/12/30 00:34:04;;;;;;;0.57;0.20;;;;;;;7.47;96.65;99504.84;5013130;28;20227;-81
2023/12/30 00:36:30;;;;;;;0.30;0.30;;;;;;;7.65;97.04;99496.69;5012679;28;20611;-82
2023/12/30 00:38:56;;;;;;;1.40;0.63;;;;;;;7.72;96.78;99497.41;5012802;28;20207;-82
2023/12/30 00:41:23;;;;;;;1.13;0.70;;;;;;;7.96;95.52;99512.41;5013418;28;20289;-82
2023/12/30 00:43:49;;;;;;;0.83;0.60;;;;;;;7.99;94.56;99539.22;5012491;28;20269;-81
2023/12/30 00:46:19;;;;;;;0.70;0.50;;;;;;;8.09;96.29;99536.38;5013391;28;20213;-81
2023/12/30 00:48:46;;;;;;;1.40;0.50;;;;;;;7.84;96.02;99543.88;5013172;28;20214;-82
2023/12/30 00:51:12;;;;;;;0.50;0.50;;;;;;;7.94;97.07;99528.94;5013133;28;20727;-81
2023/12/30 00:53:39;;;;;;;1.43;0.33;;;;;;;7.89;95.35;99554.19;5012177;28;20218;-80
2023/12/30 00:56:05;;;;;;;0.70;0.50;;;;;;;8.03;94.36;99578.13;5012083;28;20666;-81
2023/12/30 00:58:32;;;;;;;0.80;0.50;;;;;;;7.86;92.96;99601.84;5013165;28;20269;-81
2023/12/30 01:00:58;;;;;;;3.77;0.80;;;;;;;7.91;93.02;99614.78;5012719;28;20230;-82
2023/12/30 01:03:30;;;;;;;1.60;1.03;;;;;;;7.91;93.83;99610.41;5012318;28;20293;-81
2023/12/30 01:05:56;;;;;;;0.57;0.40;;;;;;;7.41;94.47;99620.06;5012855;28;20211;-81
2023/12/30 01:08:22;;;;;;;0.70;0.40;;;;;;;7.47;95.05;99596.63;5012094;28;20604;-80
2023/12/30 01:10:49;;;;;;;1.80;0.40;;;;;;;7.33;96.55;99619.38;5012201;28;20625;-81
2023/12/30 01:13:16;;;;;;;0.47;0.30;;;;;;;6.96;95.07;99597.56;5012923;28;20563;-81
2023/12/30 01:15:42;;;;;;;0.50;0.30;;;;;;;7.02;95.21;99648.50;5013008;28;20680;-81
2023/12/30 01:18:08;;;;;;;0.57;0.20;;;;;;;6.53;94.03;99634.56;5013135;28;20288;-82
2023/12/30 01:20:36;;;;;;;1.27;0.40;;;;;;;6.56;95.98;99606.03;5015074;28;20231;-83
2023/12/30 01:23:02;;;;;;;2.00;0.30;;;;;;;6.65;97.10;99550.53;5015649;28;20253;-82
2023/12/30 01:25:29;;;;;;;0.93;0.40;;;;;;;6.72;96.77;99541.78;5016094;28;20202;-81
2023/12/30 01:27:56;;;;;;;0.93;0.43;;;;;;;6.63;98.27;99536.75;5015892;28;20207;-82
2023/12/30 01:30:23;;;;;;;2.00;0.90;;;;;;;6.61;97.21;99541.09;5014908;28;20204;-82
2023/12/30 01:32:49;;;;;;;1.27;0.80;;;;;;;6.72;96.45;99556.50;5015535;28;20222;-81
2023/12/30 01:35:15;;;;;;;1.53;0.93;;;;;;;6.86;96.18;99557.09;5015983;28;20255;-82
2023/12/30 01:37:43;;;;;;;1.67;0.97;;;;;;;6.94;94.68;99575.13;5015846;28;20261;-82
2023/12/30 01:40:10;;;;;;;1.10;1.00;;;;;;;6.97;93.17;99603.59;5015988;28;20276;-81
2023/12/30 01:42:40;;;;;;;1.57;0.67;;;;;;;7.07;92.97;99631.09;5015471;28;20230;-83
2023/12/30 01:45:07;;;;;;;1.23;0.70;;;;;;;7.10;91.97;99643.16;5015332;28;20207;-82
2023/12/30 01:47:34;;;;;;;1.40;0.73;;;;;;;7.01;90.93;99669.25;5015466;28;20199;-81
2023/12/30 01:50:01;;;;;;;1.80;0.87;;;;;;;7.01;90.10;99688.28;5015810;28;20264;-80
2023/12/30 01:52:27;;;;;;;0.47;0.37;;;;;;;7.10;90.17;99690.72;5015779;28;20850;-81
2023/12/30 01:54:55;;;;;;;1.90;0.50;;;;;;;7.08;90.32;99709.81;5016175;28;20206;-81
2023/12/30 01:57:22;;;;;;;1.73;0.90;;;;;;;7.02;89.99;99722.88;5014901;28;20230;-82
2023/12/30 01:59:51;;;;;;;1.67;1.27;;;;;;;6.90;90.95;99726.53;5015078;28;20312;-82
2023/12/30 02:02:18;;;;;;;2.83;1.40;;;;;;;7.06;91.00;99727.16;5015057;28;20210;-81
2023/12/30 02:04:44;;;;;;;2.13;1.10;;;;;;;7.09;90.66;99727.94;5015393;28;20249;-81
2023/12/30 02:07:11;;;;;;;1.57;1.30;;;;;;;7.08;90.95;99736.59;5015510;28;20214;-81
2023/12/30 02:09:36;;;;;;;2.13;1.10;;;;;;;6.94;90.93;99731.63;5015195;28;20253;-81
2023/12/30 02:12:05;;;;;;;1.07;0.70;;;;;;;6.93;91.65;99737.69;5014622;28;20636;-82
2023/12/30 02:14:32;;;;;;;0.93;0.40;;;;;;;6.80;91.59;99736.19;5015071;28;20713;-82
2023/12/30 02:16:59;;;;;;;2.10;0.50;;;;;;;6.87;91.62;99726.56;5014117;28;20221;-81
2023/12/30 02:19:26;;;;;;;1.77;0.50;;;;;;;6.84;91.95;99716.22;5006929;28;20614;-82
2023/12/30 02:21:53;;;;;;;0.87;0.43;;;;;;;7.13;91.16;99736.53;5015164;28;20211;-81
2023/12/30 02:24:21;;;;;;;1.83;0.70;;;;;;;7.17;90.69;99753.75;5014709;28;20231;-82
2023/12/30 02:26:47;;;;;;;2.83;1.60;;;;;;;7.18;90.79;99762.44;5014586;28;20210;-82
2023/12/30 02:29:14;;;;;;;1.27;0.60;;;;;;;6.89;91.70;99772.34;5014802;28;20203;-82
2023/12/30 02:31:45;;;;;;;2.50;1.10;;;;;;;7.03;92.17;99750.53;5013808;28;20737;-81
2023/12/30 02:34:12;;;;;;;1.33;0.90;;;;;;;7.13;92.20;99736.53;5015732;28;20626;-81
2023/12/30 02:36:38;;;;;;;1.60;1.00;;;;;;;7.13;92.33;99739.97;5014626;28;20666;-82
2023/12/30 02:39:05;;;;;;;2.70;1.23;;;;;;;7.12;92.61;99727.03;5013626;28;20238;-82
2023/12/30 02:41:33;;;;;;;1.37;0.80;;;;;;;7.11;92.83;99728.75;5014207;28;20720;-81
2023/12/30 02:44:02;;;;;;;1.50;0.90;;;;;;;7.08;92.10;99740.94;5016900;28;20250;-82
2023/12/30 02:46:28;;;;;;;1.77;0.60;;;;;;;6.92;92.08;99746.38;5010769;28;20748;-81
2023/12/30 02:48:55;;;;;;;2.83;0.63;;;;;;;6.97;92.01;99743.69;5017284;28;20672;-84
2023/12/30 02:51:21;;;;;;;3.23;1.27;;;;;;;7.02;91.54;99746.25;5018182;28;20207;-82
2023/12/30 02:53:47;;;;;;;1.40;0.70;;;;;;;7.14;91.47;99748.63;5017824;28;20250;-81
2023/12/30 02:56:21;;;;;;;0.70;0.70;;;;;;;7.03;91.00;99756.56;5017838;28;20215;-84
2023/12/30 02:58:50;;;;;;;0.60;0.47;;;;;;;7.15;91.20;99756.41;5018215;28;20206;-81
2023/12/30 03:01:16;;;;;;;1.17;0.90;;;;;;;7.16;90.43;99775.41;5017454;28;20231;-81
2023/12/30 03:03:43;;;;;;;1.57;0.90;;;;;;;7.28;89.53;99787.34;5017121;28;20230;-83
2023/12/30 03:06:09;;;;;;;2.27;1.00;;;;;;;7.22;89.09;99809.06;5017506;28;20207;-82
2023/12/30 03:08:35;;;;;;;2.43;0.70;;;;;;;7.06;88.75;99831.78;5017171;28;20206;-82
2023/12/30 03:11:03;;;;;;;2.37;0.60;;;;;;;7.00;89.21;99846.56;5017218;28;20736;-82
2023/12/30 03:13:29;;;;;;;1.30;0.70;;;;;;;7.20;88.66;99849.75;5017697;28;20228;-82
2023/12/30 03:15:57;;;;;;;2.13;0.90;;;;;;;7.25;89.43;99860.91;5016959;28;20277;-80
2023/12/30 03:18:23;;;;;;;1.50;1.00;;;;;;;7.20;89.47;99854.94;5016279;28;20235;-81
2023/12/30 03:20:48;;;;;;;2.63;1.40;;;;;;;7.14;90.30;99847.25;5017031;28;20581;-81
2023/12/30 03:23:15;;;;;;;2.07;1.00;;;;;;;6.99;90.82;99830.16;5017268;28;20250;-82
2023/12/30 03:25:41;;;;;;;1.73;1.10;;;;;;;7.15;90.07;99834.25;5016912;28;20253;-82
2023/12/30 03:28:07;;;;;;;2.43;1.00;;;;;;;7.16;89.68;99848.94;5017708;28;20207;-79
2023/12/30 03:33:57;;;;;;;1.07;1.00;;;;;;;7.20;91.06;99835.94;5008820;28;20223;-81
2023/12/30 03:36:24;;;;;;;1.60;0.70;;;;;;;7.23;91.09;99835.88;5017260;28;20841;-82
2023/12/30 03:38:52;;;;;;;3.40;1.20;;;;;;;7.24;90.08;99842.78;5017197;28;20211;-81
2023/12/30 03:41:19;;;;;;;2.27;1.77;;;;;;;7.22;90.09;99842.81;5016577;28;20702;-82
2023/12/30 03:43:45;;;;;;;2.80;0.70;;;;;;;7.09;90.27;99855.09;5016932;28;20234;-81
2023/12/30 03:46:11;;;;;;;1.90;1.17;;;;;;;7.23;90.18;99839.31;5016339;28;20211;-81
2023/12/30 03:48:38;;;;;;;1.40;0.80;;;;;;;7.01;90.28;99862.13;5016270;28;20211;-82
2023/12/30 03:51:06;;;;;;;1.40;0.60;;;;;;;7.04;90.72;99846.53;5016717;28;20216;-81
2023/12/30 03:53:32;;;;;;;2.40;0.87;;;;;;;7.10;90.50;99854.22;5016461;28;20258;-82
2023/12/30 03:56:00;;;;;;;1.83;0.70;;;;;;;7.09;90.13;99864.63;5016716;28;20203;-82
2023/12/30 03:58:26;;;;;;;2.50;1.57;;;;;;;7.03;89.58;99886.31;5016392;28;20300;-82
2023/12/30 04:00:52;;;;;;;1.60;0.50;;;;;;;6.97;89.81;99884.66;5017146;28;20660;-82
2023/12/30 04:03:19;;;;;;;2.30;0.60;;;;;;;7.01;89.83;99884.63;5015795;28;20238;-82
2023/12/30 04:05:45;;;;;;;2.23;0.60;;;;;;;7.15;89.91;99859.34;5016932;28;20742;-81
2023/12/30 04:08:13;;;;;;;2.40;0.90;;;;;;;6.99;89.42;99887.25;5016233;28;20690;-81
2023/12/30 04:10:39;;;;;;;4.53;1.57;;;;;;;7.30;89.15;99885.09;5016749;28;20261;-81
2023/12/30 04:13:06;;;;;;;1.63;0.80;;;;;;;7.10;88.56;99905.28;5016214;28;20273;-82
2023/12/30 04:15:32;;;;;;;2.77;1.20;;;;;;;7.10;88.81;99903.53;5016296;28;20207;-82
2023/12/30 04:17:58;;;;;;;2.33;0.90;;;;;;;6.97;89.32;99910.59;5015772;28;20203;-82
2023/12/30 04:20:25;;;;;;;2.30;1.17;;;;;;;7.04;89.01;99916.59;5016571;28;20284;-83
2023/12/30 04:22:51;;;;;;;1.73;0.90;;;;;;;6.94;89.05;99918.44;5015810;28;20725;-81
2023/12/30 04:25:19;;;;;;;1.73;0.90;;;;;;;6.82;89.23;99913.41;5016221;28;20203;-84
2023/12/30 04:27:45;;;;;;;4.13;0.93;;;;;;;7.02;89.05;99907.13;5016047;28;20203;-81
2023/12/30 04:30:12;;;;;;;2.70;0.90;;;;;;;6.98;89.03;99906.28;5016321;28;20202;-80
2023/12/30 04:32:39;;;;;;;2.50;1.00;;;;;;;6.92;89.31;99922.78;5015203;28;20226;-82
2023/12/30 04:35:06;;;;;;;1.03;0.73;;;;;;;6.82;89.46;99915.13;5015725;28;20565;-83
2023/12/30 04:37:32;;;;;;;8.40;1.03;;;;;;;7.10;88.32;99913.91;5016263;28;20207;-82
2023/12/30 04:39:59;;;;;;;2.63;0.80;;;;;;;7.10;88.83;99916.50;5016077;28;20203;-81
2023/12/30 04:42:26;;;;;;;2.20;0.90;;;;;;;6.92;88.74;99917.59;5015738;28;20277;-82
2023/12/30 04:44:53;;;;;;;3.97;1.17;;;;;;;6.97;88.84;99922.72;5015610;28;20213;-81
2023/12/30 04:47:19;;;;;;;3.57;0.90;;;;;;;6.91;88.58;99933.19;5015903;28;20284;-81
2023/12/30 04:49:45;;;;;;;1.77;0.60;;;;;;;7.09;88.09;99930.34;5016590;28;20670;-81
2023/12/30 04:52:12;;;;;;;3.27;0.87;;;;;;;7.10;87.98;99949.41;5016653;28;20207;-80
2023/12/30 04:54:42;;;;;;;5.03;1.40;;;;;;;6.92;87.75;99972.09;5015845;28;20293;-81
2023/12/30 04:57:08;;;;;;;3.07;1.20;;;;;;;6.96;87.85;99968.59;5015901;28;20700;-80
2023/12/30 04:59:37;;;;;;;2.33;0.93;;;;;;;6.86;87.55;99985.13;5015842;28;20261;-81
2023/12/30 05:02:05;;;;;;;1.37;0.70;;;;;;;7.06;86.93;99994.44;5015565;28;20230;-82
2023/12/30 05:04:31;;;;;;;2.77;1.63;;;;;;;6.85;87.41;99991.19;5015580;28;20229;-82
2023/12/30 05:06:57;;;;;;;2.00;1.30;;;;;;;6.98;86.72;99991.94;5015146;28;20298;-83
2023/12/30 05:09:24;;;;;;;5.03;1.00;;;;;;;7.12;86.31;99995.22;5015842;28;20557;-81
2023/12/30 05:11:50;;;;;;;2.77;1.00;;;;;;;7.26;86.71;100001.97;5016376;28;20654;-81
2023/12/30 05:14:18;;;;;;;2.07;0.90;;;;;;;7.16;87.81;99986.50;5016541;28;20234;-81
2023/12/30 05:16:46;;;;;;;4.13;1.00;;;;;;;6.92;87.39;100000.63;5015077;28;20610;-83
2023/12/30 05:19:13;;;;;;;2.30;0.97;;;;;;;6.94;87.04;100000.63;5016271;28;20261;-81
2023/12/30 05:21:39;;;;;;;4.23;1.40;;;;;;;7.00;86.56;99997.06;5015469;28;20225;-82
2023/12/30 05:24:06;;;;;;;6.47;1.63;;;;;;;7.01;87.02;99986.69;5014788;28;20227;-81
2023/12/30 05:26:33;;;;;;;2.73;1.57;;;;;;;6.91;86.97;99988.53;5015532;28;20205;-82
2023/12/30 05:28:59;;;;;;;4.97;1.47;;;;;;;7.11;86.86;99985.69;5015746;28;20635;-82
2023/12/30 05:31:25;;;;;;;5.07;2.10;;;;;;;7.19;87.15;99990.78;5015543;28;20243;-81
2023/12/30 05:33:53;;;;;;;3.60;1.97;;;;;;;7.21;86.86;100001.16;5011657;28;20280;-80
2023/12/30 05:36:19;;;;;;;6.93;3.03;;;;;;;7.21;87.38;99998.56;5015367;28;20207;-80
2023/12/30 05:38:46;;;;;;;10.17;2.73;;;;;;;7.00;87.26;100005.75;5015302;28;20285;-83
2023/12/30 05:41:12;;;;;;;5.17;2.90;;;;;;;7.08;87.01;100023.81;5012145;28;20853;-80
2023/12/30 05:43:40;;;;;;;3.93;2.60;;;;;;;6.95;86.28;100036.91;5015483;28;20284;-82
2023/12/30 05:46:06;;;;;;;5.13;2.43;;;;;;;6.95;86.86;100030.88;5015509;28;20206;-81
2023/12/30 05:48:33;;;;;;;3.87;2.23;;;;;;;6.93;87.26;100035.22;5015389;28;20207;-82
2023/12/30 05:51:01;;;;;;;4.87;2.17;;;;;;;7.12;86.69;100039.34;5015401;28;20202;-80
2023/12/30 05:53:28;;;;;;;3.47;1.97;;;;;;;7.08;86.11;100054.97;5014893;28;20281;-81
2023/12/30 05:55:54;;;;;;;5.57;2.23;;;;;;;7.14;86.19;100047.97;5015257;28;20264;-82
2023/12/30 05:58:21;;;;;;;4.60;2.00;;;;;;;7.30;85.74;100056.44;5014848;28;20218;-80
2023/12/30 06:00:47;;;;;;;4.87;2.30;;;;;;;7.35;85.63;100061.56;5015747;28;20211;-80
2023/12/30 06:03:13;;;;;;;3.70;2.40;;;;;;;7.08;86.80;100073.97;5014101;28;20791;-81
2023/12/30 06:05:40;;;;;;;4.90;2.00;;;;;;;7.03;87.82;100055.00;5014483;28;20214;-82
2023/12/30 06:08:07;;;;;;;5.07;2.33;;;;;;;7.20;87.22;100048.78;5015319;28;20302;-79
2023/12/30 06:10:34;;;;;;;2.97;1.70;;;;;;;7.12;86.39;100072.22;5015964;28;20199;-81
2023/12/30 06:13:00;;;;;;;4.67;1.83;;;;;;;7.23;85.84;100082.47;5014790;28;20273;-82
2023/12/30 06:15:26;;;;;;;3.23;1.80;;;;;;;7.18;86.32;100090.31;5013281;28;20206;-80
2023/12/30 06:17:53;;;;;;;3.27;1.70;;;;;;;7.21;86.23;100079.03;5015897;28;20207;-80
2023/12/30 06:20:21;;;;;;;4.60;2.40;;;;;;;7.38;86.17;100066.72;5019026;28;20239;-81
2023/12/30 06:22:47;;;;;;;4.47;2.00;;;;;;;7.28;85.99;100091.94;5018711;28;20226;-82
2023/12/30 06:25:15;;;;;;;3.87;1.77;;;;;;;7.29;85.83;100079.81;5018783;28;20203;-80
2023/12/30 06:27:41;;;;;;;6.03;2.60;;;;;;;7.11;86.40;100101.63;5018732;28;20203;-81
2023/12/30 06:30:08;;;;;;;3.67;1.80;;;;;;;7.32;85.94;100097.97;5018946;28;20561;-81
2023/12/30 06:32:35;;;;;;;8.43;2.20;;;;;;;7.11;86.99;100086.06;5016840;28;20207;-81
2023/12/30 06:35:01;;;;;;;10.20;2.20;;;;;;;7.24;86.31;100092.00;5017592;28;20662;-83
2023/12/30 06:37:27;;;;;;;6.83;2.60;;;;;;;7.30;86.64;100100.56;5017727;28;20771;-82
2023/12/30 06:39:54;;;;;;;4.90;2.10;;;;;;;7.23;85.44;100113.63;5018583;28;20587;-83
2023/12/30 06:42:21;;;;;;;6.13;2.20;;;;;;;7.43;85.68;100119.44;5017593;28;20800;-79
2023/12/30 06:44:48;;;;;;;3.20;1.90;;;;;;;7.32;84.89;100139.50;5017658;28;20215;-80
2023/12/30 06:47:14;;;;;;;4.13;2.00;;;;;;;7.14;85.46;100150.94;5016780;28;20665;-85
2023/12/30 06:49:40;;;;;;;5.13;1.83;;;;;;;7.30;85.54;100152.50;5017924;28;20740;-81
2023/12/30 06:52:07;;;;;;;5.20;2.13;;;;;;;7.41;85.46;100151.50;5017784;28;20261;-81
2023/12/30 06:54:33;;;;;;;6.30;1.70;;;;;;;7.14;85.55;100159.56;5017022;28;20704;-80
2023/12/30 06:57:00;;;;;;;6.77;2.40;;;;;;;7.26;85.32;100158.59;5017409;28;20205;-82
2023/12/30 06:59:27;;;;;;;4.03;1.63;;;;;;;7.26;85.61;100158.59;5017536;28;20292;-81
2023/12/30 07:01:54;;;;;;;5.37;2.60;;;;;;;7.47;84.81;100154.03;5017503;28;20305;-81
2023/12/30 07:04:21;;;;;;;5.27;1.90;;;;;;;7.33;84.97;100181.03;5017280;28;20227;-82
2023/12/30 07:06:47;;;;;;;5.73;2.10;;;;;;;7.11;83.80;100206.28;5017243;28;20215;-81
2023/12/30 07:09:14;;;;;;;5.07;2.20;;;;;;;7.32;84.87;100194.88;5017918;28;20206;-80
2023/12/30 07:11:40;;;;;;;5.77;2.33;;;;;;;7.34;84.23;100223.44;5018302;28;20209;-83
2023/12/30 07:14:06;;;;;;;4.67;1.80;;;;;;;7.18;84.56;100203.69;5017715;28;20228;-80
2023/12/30 07:16:34;;;;;;;8.37;2.27;;;;;;;7.25;84.36;100211.38;5016279;28;20233;-82
2023/12/30 07:19:00;;;;;;;4.83;2.37;;;;;;;7.23;84.78;100217.47;5016809;28;20771;-81
2023/12/30 07:21:26;;;;;;;6.07;2.10;;;;;;;7.26;84.49;100226.09;5017662;28;20250;-82
2023/12/30 07:23:53;;;;;;;3.77;1.97;;;;;;;7.26;83.46;100244.25;5016795;28;20254;-80
2023/12/30 07:26:20;;;;;;;7.10;2.47;;;;;;;7.18;83.80;100253.84;5016572;28;20257;-81
2023/12/30 07:28:46;;;;;;;4.40;1.70;;;;;;;7.28;83.92;100263.28;5016831;28;20219;-81
2023/12/30 07:31:15;;;;;;;8.27;2.30;;;;;;;7.27;83.15;100273.66;5016553;28;20204;-82
2023/12/30 07:33:42;;;;;;;2.93;1.83;;;;;;;7.26;83.41;100274.56;5015759;28;20226;-81
2023/12/30 07:36:09;;;;;;;4.17;1.90;;;;;;;7.11;83.93;100272.94;5017330;28;20268;-81
2023/12/30 07:38:35;;;;;;;5.63;3.03;;;;;;;7.14;83.92;100265.97;5017964;28;20229;-83
2023/12/30 07:41:02;;;;;;;5.60;2.00;;;;;;;7.10;84.19;100258.25;5018214;28;20203;-82
2023/12/30 07:43:28;;;;;;;5.87;1.90;;;;;;;7.25;83.86;100252.91;5017332;28;20317;-80
2023/12/30 07:45:54;;;;;;;4.80;1.90;;;;;;;7.56;83.39;100260.44;5017786;28;20221;-81
2023/12/30 07:48:21;;;;;;;7.10;2.20;;;;;;;7.43;82.83;100270.06;5017572;28;20273;-82
2023/12/30 07:50:48;;;;;;;7.50;2.83;;;;;;;7.53;83.20;100276.91;5018385;28;20253;-82
2023/12/30 07:53:15;;;;;;;6.93;3.20;;;;;;;7.59;82.95;100275.13;5017302;28;20269;-81
2023/12/30 07:55:41;;;;;;;5.10;2.37;;;;;;;7.43;83.88;100277.00;5017224;28;20207;-81
2023/12/30 07:58:07;;;;;;;6.47;2.80;;;;;;;7.48;84.02;100278.69;5017529;28;20254;-81
2023/12/30 08:00:34;;;;;;;6.57;2.70;;;;;;;7.46;83.69;100280.44;5018139;28;20202;-81
2023/12/30 08:03:00;;;;;;;10.23;2.97;;;;;;;7.44;84.17;100282.19;5017735;28;20229;-82
2023/12/30 08:05:27;;;;;;;4.13;2.20;;;;;;;7.28;84.85;100278.00;5018495;28;20198;-81
2023/12/30 08:07:54;;;;;;;4.73;2.10;;;;;;;7.61;84.09;100268.19;5020116;28;20214;-82
2023/12/30 08:10:21;;;;;;;5.30;2.33;;;;;;;7.72;83.17;100281.94;5020462;28;20203;-82
2023/12/30 08:12:47;;;;;;;7.23;3.07;;;;;;;7.61;83.76;100281.16;5019939;28;20262;-81
2023/12/30 08:15:14;;;;;;;9.07;3.10;;;;;;;7.51;84.40;100272.59;5020240;28;20209;-80
2023/12/30 08:17:40;;;;;;;6.90;3.10;;;;;;;7.38;84.28;100287.44;5019100;28;20238;-80
2023/12/30 08:20:08;;;;;;;5.77;3.23;;;;;;;7.65;84.57;100254.28;5019224;28;20289;-81
2023/12/30 08:22:34;;;;;;;6.43;2.77;;;;;;;7.50;84.86;100252.72;5019759;28;20325;-82
2023/12/30 08:25:02;;;;;;;6.43;2.70;;;;;;;7.43;85.33;100249.28;5018790;28;20202;-82
2023/12/30 08:27:29;;;;;;;4.10;3.07;;;;;;;7.58;85.49;100216.28;5018915;28;20207;-80
2023/12/30 08:29:55;;;;;;;5.30;3.20;;;;;;;7.62;84.90;100236.16;5019945;28;20211;-80
2023/12/30 08:32:22;;;;;;;11.83;7.97;;;;;;;7.62;84.90;100239.59;5018808;28;20195;-80
2023/12/30 08:34:48;;;;;;;4.57;3.27;;;;;;;7.44;83.73;100266.59;5017892;28;20207;-82
2023/12/30 08:37:14;;;;;;;5.93;3.43;;;;;;;7.52;84.56;100267.38;5018877;28;20203;-82
2023/12/30 08:39:41;;;;;;;5.57;3.63;;;;;;;7.38;84.49;100269.25;5019587;28;20207;-82
2023/12/30 08:42:09;;;;;;;7.77;3.37;;;;;;;7.45;83.72;100265.75;5018584;28;20226;-83
2023/12/30 08:44:40;;;;;;;5.83;3.37;;;;;;;7.65;83.67;100275.06;5018729;28;20798;-82
2023/12/30 08:47:07;;;;;;;5.10;3.40;;;;;;;7.62;83.97;100273.38;5017897;28;20297;-81
2023/12/30 08:49:33;;;;;;;6.63;3.27;;;;;;;7.66;83.51;100279.41;5018484;28;20195;-83
2023/12/30 08:51:59;;;;;;;4.40;2.73;;;;;;;7.65;84.09;100286.34;5018995;28;20203;-82
2023/12/30 08:54:26;;;;;;;8.40;3.20;;;;;;;7.56;83.85;100283.81;5018477;28;20733;-81
2023/12/30 08:56:53;;;;;;;5.50;3.40;;;;;;;7.62;84.26;100288.94;5018956;28;20682;-83
2023/12/30 08:59:23;;;;;;;7.97;3.10;;;;;;;7.70;83.72;100294.06;5019317;28;20741;-81
2023/12/30 09:01:49;;;;;;;11.10;3.30;;;;;;;7.78;83.08;100314.78;5018462;28;20207;-81
2023/12/30 09:06:46;;;;;;;7.93;3.43;;;;;;;7.74;83.96;100313.97;5024169;28;20233;-82
2023/12/30 09:09:12;;;;;;;8.50;2.93;;;;;;;7.66;83.12;100331.34;5035709;28;20237;-81
2023/12/30 09:11:39;;;;;;;5.60;2.57;;;;;;;7.77;82.12;100347.72;5035953;28;20744;-82
2023/12/30 09:14:06;;;;;;;6.40;3.37;;;;;;;7.89;81.69;100371.00;5034640;28;20248;-82
2023/12/30 09:16:34;;;;;;;4.40;2.83;;;;;;;7.86;81.64;100386.59;5014790;28;20229;-81
2023/12/30 09:19:00;;;;;;;6.03;2.90;;;;;;;7.78;81.85;100398.78;5014675;28;20657;-82
2023/12/30 09:21:26;;;;;;;5.57;3.40;;;;;;;7.67;82.34;100408.41;5014895;28;20629;-82
2023/12/30 09:23:53;;;;;;;6.47;3.90;;;;;;;7.78;81.44;100414.38;5014533;28;20250;-82
2023/12/30 09:26:19;;;;;;;4.27;3.30;;;;;;;7.86;81.06;100422.97;5015530;28;20222;-82
2023/12/30 09:28:45;;;;;;;4.43;2.93;;;;;;;7.58;82.12;100432.72;5015153;28;20207;-81
2023/12/30 09:31:11;;;;;;;11.43;2.80;;;;;;;7.85;81.12;100434.25;5015140;28;20235;-82
2023/12/30 09:33:39;;;;;;;4.50;3.60;;;;;;;7.64;82.32;100443.06;5015304;28;20198;-81
2023/12/30 09:36:07;;;;;;;6.10;3.03;;;;;;;7.75;81.86;100425.69;5015356;28;20396;-80
2023/12/30 09:38:33;;;;;;;4.87;2.67;;;;;;;7.86;81.52;100425.56;5014735;28;20202;-80
2023/12/30 09:41:00;;;;;;;7.83;3.67;;;;;;;7.93;81.82;100423.81;5014874;28;20624;-83
2023/12/30 09:43:27;;;;;;;6.23;3.30;;;;;;;8.03;81.35;100450.59;5015351;28;20255;-82
2023/12/30 09:45:55;;;;;;;8.17;3.43;;;;;;;7.97;81.06;100461.91;5013667;28;20709;-82
2023/12/30 09:48:25;;;;;;;3.73;2.97;;;;;;;8.16;80.88;100468.63;5014933;28;20203;-82
2023/12/30 09:50:55;;;;;;;4.73;2.60;;;;;;;7.88;80.39;100483.59;5014990;28;20294;-80
2023/12/30 09:53:22;;;;;;;6.03;2.60;;;;;;;8.16;80.17;100485.97;5018062;28;20688;-80
2023/12/30 09:55:49;;;;;;;5.83;2.60;;;;;;;8.21;79.73;100496.38;5018757;28;20613;-81
2023/12/30 09:58:16;;;;;;;6.37;3.10;;;;;;;8.24;80.64;100502.38;5019495;28;20265;-81
2023/12/30 10:00:43;;;;;;;5.23;3.87;;;;;;;8.16;80.49;100511.97;5018648;28;20261;-81
2023/12/30 10:03:10;;;;;;;8.63;3.57;;;;;;;8.31;80.27;100501.47;5018601;28;20226;-81
2023/12/30 10:05:36;;;;;;;8.93;4.27;;;;;;;8.29;79.55;100530.97;5018694;28;20230;-82
2023/12/30 10:08:05;;;;;;;7.47;4.93;;;;;;;8.17;79.61;100521.53;5018216;28;20203;-81
2023/12/30 10:10:42;;;;;;;5.03;3.50;;;;;;;8.26;78.65;100538.78;5018535;28;20254;-81
2023/12/30 10:13:09;;;;;;;5.03;3.20;;;;;;;8.40;78.86;100549.94;5018308;28;20210;-82
2023/12/30 10:15:35;;;;;;;4.73;3.60;;;;;;;8.26;78.00;100575.19;5018526;28;20254;-81
2023/12/30 10:18:03;;;;;;;4.70;2.87;;;;;;;8.08;78.29;100566.63;5017951;28;20199;-80
2023/12/30 10:20:30;;;;;;;9.67;3.73;;;;;;;8.28;78.34;100568.25;5019346;28;20207;-81
2023/12/30 10:22:56;;;;;;;6.00;3.37;;;;;;;8.35;77.12;100580.34;5018744;28;20273;-82
2023/12/30 10:25:24;;;;;;;5.37;4.00;;;;;;;8.27;77.75;100605.53;5018952;28;20284;-82
2023/12/30 10:27:51;;;;;;;7.20;3.20;;;;;;;8.42;77.79;100609.78;5018416;28;20281;-82
2023/12/30 10:30:19;;;;;;;5.60;3.10;;;;;;;8.52;76.75;100607.13;5019105;28;20260;-82
2023/12/30 10:32:46;;;;;;;4.43;2.97;;;;;;;8.29;77.61;100622.00;5017955;28;20234;-80
2023/12/30 10:35:13;;;;;;;6.87;3.93;;;;;;;8.24;77.33;100613.34;5019423;28;20226;-79
2023/12/30 10:37:42;;;;;;;3.57;2.90;;;;;;;8.34;78.01;100594.19;5018569;28;20206;-81
2023/12/30 10:40:10;;;;;;;5.73;2.97;;;;;;;8.46;78.64;100569.88;5019517;28;20667;-80
2023/12/30 10:42:38;;;;;;;9.37;3.10;;;;;;;8.44;77.46;100584.63;5018509;28;20227;-80
2023/12/30 10:45:05;;;;;;;4.53;2.87;;;;;;;8.61;78.56;100576.69;5017843;28;20231;-81
2023/12/30 10:47:37;;;;;;;7.27;3.00;;;;;;;8.60;77.67;100588.81;5016352;28;20203;-81
2023/12/30 10:50:07;;;;;;;3.57;2.33;;;;;;;8.30;76.90;100603.75;5018426;28;20199;-81
2023/12/30 10:52:36;;;;;;;7.63;2.57;;;;;;;8.66;77.90;100601.81;5018315;28;20230;-80
2023/12/30 10:55:09;;;;;;;6.17;2.63;;;;;;;8.34;76.01;100622.81;5023762;28;20219;-79
2023/12/30 10:57:38;;;;;;;6.73;3.40;;;;;;;8.37;77.17;100616.75;5023098;28;20207;-81
2023/12/30 11:00:09;;;;;;;6.07;3.10;;;;;;;8.67;78.81;100569.69;5023906;28;20280;-81
2023/12/30 11:02:36;;;;;;;6.20;2.83;;;;;;;8.79;78.04;100578.25;5023103;28;20594;-80
2023/12/30 11:05:06;;;;;;;6.20;2.87;;;;;;;9.01;78.57;100592.78;5022577;28;20227;-79
2023/12/30 11:07:33;;;;;;;13.63;4.33;;;;;;;9.05;78.95;100573.66;5027094;28;20202;-83
2023/12/30 11:09:59;;;;;;;10.03;3.30;;;;;;;9.05;80.21;100565.84;5022504;28;20276;-85
2023/12/30 11:12:27;;;;;;;6.80;2.50;;;;;;;8.82;77.53;100586.91;5019661;28;20202;-84
2023/12/30 11:14:55;;;;;;;11.40;3.37;;;;;;;8.98;80.33;100561.59;5026330;28;20310;-82
2023/12/30 11:17:35;;;;;;;6.17;3.60;;;;;;;8.87;78.80;100553.03;5026342;28;20203;-83
2023/12/30 11:20:24;;;;;;;5.60;2.97;;;;;;;8.83;78.50;100567.81;5026189;28;20206;-81
2023/12/30 11:22:50;;;;;;;11.10;4.63;;;;;;;8.68;78.63;100568.81;5030009;28;20298;-82
2023/12/30 11:25:18;;;;;;;7.03;4.93;;;;;;;8.61;79.50;100556.72;5028444;28;20277;-82
2023/12/30 11:27:47;;;;;;;8.30;4.10;;;;;;;8.70;78.98;100535.84;5029289;28;20203;-83
2023/12/30 11:30:17;;;;;;;7.10;5.03;;;;;;;8.58;79.77;100535.06;5028991;28;20222;-81
2023/12/30 11:32:44;;;;;;;5.50;3.50;;;;;;;8.78;78.63;100538.38;5030406;28;20267;-81
2023/12/30 11:35:13;;;;;;;8.57;4.00;;;;;;;8.77;78.82;100551.41;5030473;28;20307;-83
2023/12/30 11:37:43;;;;;;;5.77;5.13;;;;;;;8.70;79.24;100550.56;5027239;28;20238;-83
2023/12/30 11:40:14;;;;;;;7.53;4.83;;;;;;;8.77;79.37;100533.19;5026712;28;20257;-82
2023/12/30 11:42:40;;;;;;;7.33;4.90;;;;;;;8.94;79.10;100523.47;5030189;28;20206;-82